Terminal Aerodrome Forecast
Issued by NWS

Home | Current Version | Previous Version | Text Only | Print | Product List | Glossary On
Versions: 1 2 3 4 5 6 7 8 9 10 11 12 13 14 15 16 17
233
FTUS43 KIND 290719 AAA
TAFLAF
TAF AMD
KLAF 290719Z 2907/3006 VRB04KT P6SM SCT025 BKN040
     FM291000 22003KT 4SM BR SCT080
     FM291400 24008KT P6SM BKN035
     FM292100 27009G18KT P6SM BKN040
     FM300200 29003KT P6SM SCT040 BKN200
      AMD LTD TO CLD VIS AND WIND TIL 291300=

USA.gov is the U.S. government's official web portal to all federal, state and local government web resources and services.